CNA8 weather

CLOSED Winchester Airport
Winchester, Ontario, Canada

Public forecast

Using degrees Celsius for public forecast. Weather courtesy of forecast.io.

METAR (pilot weather report)

Closest report is Massena International Richards Field, 20.5 nm (38.0 km) ESE. Retrieved 2019/05/21 02:53 UTC (23 minutes ago):

KMSS 210253Z AUTO 27011KT 10SM -RA FEW021 FEW039 OVC048 11/08 A2982 RMK AO2 SLP099 P0000 60000 T01060078 51042

TAF (pilot weather forecast)

Forecast is more than 12 hours old.

Closest forecast is Massena International Richards Field, 20.5 nm (38.0 km) ESE. Retrieved 2019/05/20 00:28 UTC (1 day ago):

TAF KMSS 202325Z 2100/2124 26017G29KT P6SM BKN060 TEMPO 2100/2104 -SHRA BKN035 OVC050 FM210400 26012KT P6SM OVC035 FM211400 28014G23KT P6SM BKN035 FM211800 31017G26KT P6SM BKN050 FM212300 32012KT P6SM FEW060